sensor_id;sensor_type;location;lat;lon;timestamp;temperature;humidity
55064;DHT22;40963;52.168;21.296;2022-12-18T00:01:37;-4.90;99.90
55064;DHT22;40963;52.168;21.296;2022-12-18T00:04:05;-4.90;99.90
55064;DHT22;40963;52.168;21.296;2022-12-18T00:06:31;-5.00;99.90
55064;DHT22;40963;52.168;21.296;2022-12-18T00:08:59;-5.00;99.90
55064;DHT22;40963;52.168;21.296;2022-12-18T00:11:27;-5.00;99.90
55064;DHT22;40963;52.168;21.296;2022-12-18T00:13:55;-5.00;99.90
55064;DHT22;40963;52.168;21.296;2022-12-18T00:16:23;-4.90;99.90
55064;DHT22;40963;52.168;21.296;2022-12-18T00:18:51;-5.00;99.90
55064;DHT22;40963;52.168;21.296;2022-12-18T00:21:17;-4.90;99.90
55064;DHT22;40963;52.168;21.296;2022-12-18T00:23:44;-4.90;99.90
55064;DHT22;40963;52.168;21.296;2022-12-18T00:26:24;-4.90;99.90
55064;DHT22;40963;52.168;21.296;2022-12-18T00:28:51;-4.90;99.90
55064;DHT22;40963;52.168;21.296;2022-12-18T00:31:21;-4.90;99.90
55064;DHT22;40963;52.168;21.296;2022-12-18T00:33:47;-4.90;99.90
55064;DHT22;40963;52.168;21.296;2022-12-18T00:36:19;-4.90;99.90
55064;DHT22;40963;52.168;21.296;2022-12-18T00:38:45;-4.90;99.90
55064;DHT22;40963;52.168;21.296;2022-12-18T00:41:13;-4.90;99.90
55064;DHT22;40963;52.168;21.296;2022-12-18T00:43:39;-4.80;99.90
55064;DHT22;40963;52.168;21.296;2022-12-18T00:46:05;-4.80;99.90
55064;DHT22;40963;52.168;21.296;2022-12-18T00:48:32;-4.80;99.90
55064;DHT22;40963;52.168;21.296;2022-12-18T00:50:57;-4.90;99.90
55064;DHT22;40963;52.168;21.296;2022-12-18T00:53:23;-4.80;99.90
55064;DHT22;40963;52.168;21.296;2022-12-18T00:55:49;-4.80;99.90
55064;DHT22;40963;52.168;21.296;2022-12-18T00:58:15;-4.80;99.90
55064;DHT22;40963;52.168;21.296;2022-12-18T01:00:42;-4.80;99.90
55064;DHT22;40963;52.168;21.296;2022-12-18T01:03:07;-4.80;99.90
55064;DHT22;40963;52.168;21.296;2022-12-18T01:05:33;-4.80;99.90
55064;DHT22;40963;52.168;21.296;2022-12-18T01:07:59;-4.80;99.90
55064;DHT22;40963;52.168;21.296;2022-12-18T01:10:25;-4.80;99.90
55064;DHT22;40963;52.168;21.296;2022-12-18T01:12:52;-4.80;99.90
55064;DHT22;40963;52.168;21.296;2022-12-18T01:15:18;-4.80;99.90
55064;DHT22;40963;52.168;21.296;2022-12-18T01:17:44;-4.70;99.90
55064;DHT22;40963;52.168;21.296;2022-12-18T01:20:12;-4.70;99.90
55064;DHT22;40963;52.168;21.296;2022-12-18T01:22:38;-4.70;99.90
55064;DHT22;40963;52.168;21.296;2022-12-18T01:25:04;-4.70;99.90
55064;DHT22;40963;52.168;21.296;2022-12-18T01:27:32;-4.70;99.90
55064;DHT22;40963;52.168;21.296;2022-12-18T01:29:58;-4.80;99.90
55064;DHT22;40963;52.168;21.296;2022-12-18T01:32:24;-4.70;99.90
55064;DHT22;40963;52.168;21.296;2022-12-18T01:34:49;-4.70;99.90
55064;DHT22;40963;52.168;21.296;2022-12-18T01:37:15;-4.70;99.90
55064;DHT22;40963;52.168;21.296;2022-12-18T01:39:40;-4.70;99.90
55064;DHT22;40963;52.168;21.296;2022-12-18T01:42:12;-4.60;99.90
55064;DHT22;40963;52.168;21.296;2022-12-18T01:44:55;-4.70;99.90
55064;DHT22;40963;52.168;21.296;2022-12-18T01:49:52;-4.70;99.90
55064;DHT22;40963;52.168;21.296;2022-12-18T01:52:18;-4.60;99.90
55064;DHT22;40963;52.168;21.296;2022-12-18T01:54:46;-4.60;99.90
55064;DHT22;40963;52.168;21.296;2022-12-18T01:57:12;-4.60;99.90
55064;DHT22;40963;52.168;21.296;2022-12-18T01:59:39;-4.70;99.90
55064;DHT22;40963;52.168;21.296;2022-12-18T02:02:06;-4.60;99.90
55064;DHT22;40963;52.168;21.296;2022-12-18T02:04:32;-4.60;99.90
55064;DHT22;40963;52.168;21.296;2022-12-18T02:07:11;-4.60;99.90
55064;DHT22;40963;52.168;21.296;2022-12-18T02:09:50;-4.60;99.90
55064;DHT22;40963;52.168;21.296;2022-12-18T02:12:49;-4.60;99.90
55064;DHT22;40963;52.168;21.296;2022-12-18T02:15:17;-4.60;99.90
55064;DHT22;40963;52.168;21.296;2022-12-18T02:17:58;-4.60;99.90
55064;DHT22;40963;52.168;21.296;2022-12-18T02:20:36;-4.60;99.90
55064;DHT22;40963;52.168;21.296;2022-12-18T02:26:02;-4.60;99.90
55064;DHT22;40963;52.168;21.296;2022-12-18T02:28:38;-4.60;99.90
55064;DHT22;40963;52.168;21.296;2022-12-18T02:31:06;-4.60;99.90
55064;DHT22;40963;52.168;21.296;2022-12-18T02:33:35;-4.60;99.90
55064;DHT22;40963;52.168;21.296;2022-12-18T02:36:01;-4.60;99.90
55064;DHT22;40963;52.168;21.296;2022-12-18T02:38:29;-4.60;99.90
55064;DHT22;40963;52.168;21.296;2022-12-18T02:40:56;-4.60;99.90
55064;DHT22;40963;52.168;21.296;2022-12-18T02:43:23;-4.60;99.90
55064;DHT22;40963;52.168;21.296;2022-12-18T02:45:57;-4.60;99.90
55064;DHT22;40963;52.168;21.296;2022-12-18T02:48:33;-4.50;99.90
55064;DHT22;40963;52.168;21.296;2022-12-18T02:51:14;-4.50;99.90
55064;DHT22;40963;52.168;21.296;2022-12-18T02:53:49;-4.50;99.90
55064;DHT22;40963;52.168;21.296;2022-12-18T02:56:31;-4.50;99.90
55064;DHT22;40963;52.168;21.296;2022-12-18T02:59:13;-4.50;99.90
55064;DHT22;40963;52.168;21.296;2022-12-18T03:02:04;-4.40;99.90
55064;DHT22;40963;52.168;21.296;2022-12-18T03:04:55;-4.40;99.90
55064;DHT22;40963;52.168;21.296;2022-12-18T03:07:27;-4.40;99.90
55064;DHT22;40963;52.168;21.296;2022-12-18T03:09:56;-4.40;99.90
55064;DHT22;40963;52.168;21.296;2022-12-18T03:14:59;-4.40;99.90
55064;DHT22;40963;52.168;21.296;2022-12-18T03:17:27;-4.40;99.90
55064;DHT22;40963;52.168;21.296;2022-12-18T03:19:59;-4.40;99.90
55064;DHT22;40963;52.168;21.296;2022-12-18T03:22:30;-4.40;99.90
55064;DHT22;40963;52.168;21.296;2022-12-18T03:24:58;-4.40;99.90
55064;DHT22;40963;52.168;21.296;2022-12-18T03:27:27;-4.40;99.90
55064;DHT22;40963;52.168;21.296;2022-12-18T03:30:05;-4.40;99.90
55064;DHT22;40963;52.168;21.296;2022-12-18T03:32:54;-4.40;99.90
55064;DHT22;40963;52.168;21.296;2022-12-18T03:35:27;-4.40;99.90
55064;DHT22;40963;52.168;21.296;2022-12-18T03:37:54;-4.40;99.90
55064;DHT22;40963;52.168;21.296;2022-12-18T03:40:26;-4.40;99.90
55064;DHT22;40963;52.168;21.296;2022-12-18T03:43:32;-4.40;99.90
55064;DHT22;40963;52.168;21.296;2022-12-18T03:46:03;-4.50;99.90
55064;DHT22;40963;52.168;21.296;2022-12-18T03:48:35;-4.50;99.90
55064;DHT22;40963;52.168;21.296;2022-12-18T03:51:33;-4.50;99.90
55064;DHT22;40963;52.168;21.296;2022-12-18T03:54:03;-4.60;99.90
55064;DHT22;40963;52.168;21.296;2022-12-18T03:56:33;-4.60;99.90
55064;DHT22;40963;52.168;21.296;2022-12-18T03:59:02;-4.60;99.90
55064;DHT22;40963;52.168;21.296;2022-12-18T04:01:37;-4.60;99.90
55064;DHT22;40963;52.168;21.296;2022-12-18T04:04:05;-4.60;99.90
55064;DHT22;40963;52.168;21.296;2022-12-18T04:06:31;-4.60;99.90
55064;DHT22;40963;52.168;21.296;2022-12-18T04:08:58;-4.60;99.90
55064;DHT22;40963;52.168;21.296;2022-12-18T04:11:24;-4.60;99.90
55064;DHT22;40963;52.168;21.296;2022-12-18T04:13:50;-4.70;99.90
55064;DHT22;40963;52.168;21.296;2022-12-18T04:16:16;-4.70;99.90
55064;DHT22;40963;52.168;21.296;2022-12-18T04:18:41;-4.70;99.90
55064;DHT22;40963;52.168;21.296;2022-12-18T04:21:07;-4.70;99.90
55064;DHT22;40963;52.168;21.296;2022-12-18T04:23:33;-4.70;99.90
55064;DHT22;40963;52.168;21.296;2022-12-18T04:25:58;-4.80;99.90
55064;DHT22;40963;52.168;21.296;2022-12-18T04:28:24;-4.80;99.90
55064;DHT22;40963;52.168;21.296;2022-12-18T04:30:49;-4.80;99.90
55064;DHT22;40963;52.168;21.296;2022-12-18T04:33:15;-4.80;99.90
55064;DHT22;40963;52.168;21.296;2022-12-18T04:35:41;-4.90;99.90
55064;DHT22;40963;52.168;21.296;2022-12-18T04:38:07;-4.90;99.90
55064;DHT22;40963;52.168;21.296;2022-12-18T04:40:37;-4.90;99.90
55064;DHT22;40963;52.168;21.296;2022-12-18T04:43:04;-4.90;99.90
55064;DHT22;40963;52.168;21.296;2022-12-18T04:45:30;-4.90;99.90
55064;DHT22;40963;52.168;21.296;2022-12-18T04:47:58;-4.90;99.90
55064;DHT22;40963;52.168;21.296;2022-12-18T04:50:23;-4.90;99.90
55064;DHT22;40963;52.168;21.296;2022-12-18T04:52:49;-4.90;99.90
55064;DHT22;40963;52.168;21.296;2022-12-18T04:55:15;-4.90;99.90
55064;DHT22;40963;52.168;21.296;2022-12-18T04:57:40;-4.90;99.90
55064;DHT22;40963;52.168;21.296;2022-12-18T05:00:07;-5.00;99.90
55064;DHT22;40963;52.168;21.296;2022-12-18T05:02:32;-5.00;99.90
55064;DHT22;40963;52.168;21.296;2022-12-18T05:04:58;-5.00;99.90
55064;DHT22;40963;52.168;21.296;2022-12-18T05:07:24;-5.00;99.90
55064;DHT22;40963;52.168;21.296;2022-12-18T05:09:49;-5.00;99.90
55064;DHT22;40963;52.168;21.296;2022-12-18T05:12:15;-5.00;99.90
55064;DHT22;40963;52.168;21.296;2022-12-18T05:14:41;-5.00;99.90
55064;DHT22;40963;52.168;21.296;2022-12-18T05:17:07;-5.00;99.90
55064;DHT22;40963;52.168;21.296;2022-12-18T05:19:32;-5.00;99.90
55064;DHT22;40963;52.168;21.296;2022-12-18T05:21:58;-5.00;99.90
55064;DHT22;40963;52.168;21.296;2022-12-18T05:24:24;-5.00;99.90
55064;DHT22;40963;52.168;21.296;2022-12-18T05:26:49;-5.00;99.90
55064;DHT22;40963;52.168;21.296;2022-12-18T05:29:15;-5.00;99.90
55064;DHT22;40963;52.168;21.296;2022-12-18T05:31:41;-5.00;99.90
55064;DHT22;40963;52.168;21.296;2022-12-18T05:34:07;-5.00;99.90
55064;DHT22;40963;52.168;21.296;2022-12-18T05:36:32;-5.00;99.90
55064;DHT22;40963;52.168;21.296;2022-12-18T05:38:58;-5.00;99.90
55064;DHT22;40963;52.168;21.296;2022-12-18T05:41:25;-5.00;99.90
55064;DHT22;40963;52.168;21.296;2022-12-18T05:43:51;-5.00;99.90
55064;DHT22;40963;52.168;21.296;2022-12-18T05:46:17;-5.00;99.90
55064;DHT22;40963;52.168;21.296;2022-12-18T05:48:44;-5.00;99.90
55064;DHT22;40963;52.168;21.296;2022-12-18T05:51:13;-5.00;99.90
55064;DHT22;40963;52.168;21.296;2022-12-18T05:53:40;-5.00;99.90
55064;DHT22;40963;52.168;21.296;2022-12-18T05:56:11;-5.00;99.90
55064;DHT22;40963;52.168;21.296;2022-12-18T05:58:38;-5.00;99.90
55064;DHT22;40963;52.168;21.296;2022-12-18T06:01:09;-5.10;99.90
55064;DHT22;40963;52.168;21.296;2022-12-18T06:03:35;-5.10;99.90
55064;DHT22;40963;52.168;21.296;2022-12-18T06:06:01;-5.10;99.90
55064;DHT22;40963;52.168;21.296;2022-12-18T06:08:27;-5.10;99.90
55064;DHT22;40963;52.168;21.296;2022-12-18T06:10:53;-5.20;99.90
55064;DHT22;40963;52.168;21.296;2022-12-18T06:13:19;-5.20;99.90
55064;DHT22;40963;52.168;21.296;2022-12-18T06:15:45;-5.20;99.90
55064;DHT22;40963;52.168;21.296;2022-12-18T06:18:11;-5.20;99.90
55064;DHT22;40963;52.168;21.296;2022-12-18T06:20:36;-5.20;99.90
55064;DHT22;40963;52.168;21.296;2022-12-18T06:23:05;-5.20;99.90
55064;DHT22;40963;52.168;21.296;2022-12-18T06:25:30;-5.20;99.90
55064;DHT22;40963;52.168;21.296;2022-12-18T06:27:56;-5.30;99.90
55064;DHT22;40963;52.168;21.296;2022-12-18T06:30:22;-5.30;99.90
55064;DHT22;40963;52.168;21.296;2022-12-18T06:32:50;-5.30;99.90
55064;DHT22;40963;52.168;21.296;2022-12-18T06:35:16;-5.40;99.90
55064;DHT22;40963;52.168;21.296;2022-12-18T06:37:42;-5.50;99.90
55064;DHT22;40963;52.168;21.296;2022-12-18T06:40:08;-5.50;99.90
55064;DHT22;40963;52.168;21.296;2022-12-18T06:42:34;-5.50;99.90
55064;DHT22;40963;52.168;21.296;2022-12-18T06:44:59;-5.50;99.90
55064;DHT22;40963;52.168;21.296;2022-12-18T06:47:25;-5.50;99.90
55064;DHT22;40963;52.168;21.296;2022-12-18T06:49:50;-5.50;99.90
55064;DHT22;40963;52.168;21.296;2022-12-18T06:52:16;-5.50;99.90
55064;DHT22;40963;52.168;21.296;2022-12-18T06:54:42;-5.60;99.90
55064;DHT22;40963;52.168;21.296;2022-12-18T06:57:07;-5.60;99.90
55064;DHT22;40963;52.168;21.296;2022-12-18T06:59:33;-5.60;99.90
55064;DHT22;40963;52.168;21.296;2022-12-18T07:01:59;-5.50;99.90
55064;DHT22;40963;52.168;21.296;2022-12-18T07:04:30;-5.50;99.90
55064;DHT22;40963;52.168;21.296;2022-12-18T07:06:56;-5.50;99.90
55064;DHT22;40963;52.168;21.296;2022-12-18T07:09:23;-5.60;99.90
55064;DHT22;40963;52.168;21.296;2022-12-18T07:11:49;-5.60;99.90
55064;DHT22;40963;52.168;21.296;2022-12-18T07:14:14;-5.60;99.90
55064;DHT22;40963;52.168;21.296;2022-12-18T07:16:40;-5.60;99.90
55064;DHT22;40963;52.168;21.296;2022-12-18T07:19:06;-5.60;99.90
55064;DHT22;40963;52.168;21.296;2022-12-18T07:21:31;-5.60;99.90
55064;DHT22;40963;52.168;21.296;2022-12-18T07:23:57;-5.60;99.90
55064;DHT22;40963;52.168;21.296;2022-12-18T07:26:23;-5.60;99.90
55064;DHT22;40963;52.168;21.296;2022-12-18T07:28:49;-5.50;99.90
55064;DHT22;40963;52.168;21.296;2022-12-18T07:31:18;-5.50;99.90
55064;DHT22;40963;52.168;21.296;2022-12-18T07:33:44;-5.50;99.90
55064;DHT22;40963;52.168;21.296;2022-12-18T07:36:11;-5.50;99.90
55064;DHT22;40963;52.168;21.296;2022-12-18T07:38:37;-5.50;99.90
55064;DHT22;40963;52.168;21.296;2022-12-18T07:41:13;-5.50;99.90
55064;DHT22;40963;52.168;21.296;2022-12-18T07:43:40;-5.50;99.90
55064;DHT22;40963;52.168;21.296;2022-12-18T07:46:07;-5.40;99.90
55064;DHT22;40963;52.168;21.296;2022-12-18T07:48:32;-5.40;99.90
55064;DHT22;40963;52.168;21.296;2022-12-18T07:50:59;-5.30;99.90
55064;DHT22;40963;52.168;21.296;2022-12-18T07:53:25;-5.30;99.90
55064;DHT22;40963;52.168;21.296;2022-12-18T07:55:58;-5.20;99.90
55064;DHT22;40963;52.168;21.296;2022-12-18T07:58:24;-5.20;99.90
55064;DHT22;40963;52.168;21.296;2022-12-18T08:00:50;-5.20;99.90
55064;DHT22;40963;52.168;21.296;2022-12-18T08:03:16;-5.20;99.90
55064;DHT22;40963;52.168;21.296;2022-12-18T08:05:42;-5.20;99.90
55064;DHT22;40963;52.168;21.296;2022-12-18T08:08:07;-5.20;99.90
55064;DHT22;40963;52.168;21.296;2022-12-18T08:10:33;-5.20;99.90
55064;DHT22;40963;52.168;21.296;2022-12-18T08:12:58;-5.20;99.90
55064;DHT22;40963;52.168;21.296;2022-12-18T08:15:24;-5.20;99.90
55064;DHT22;40963;52.168;21.296;2022-12-18T08:17:49;-5.20;99.90
55064;DHT22;40963;52.168;21.296;2022-12-18T08:20:15;-5.20;99.90
55064;DHT22;40963;52.168;21.296;2022-12-18T08:22:42;-5.20;99.90
55064;DHT22;40963;52.168;21.296;2022-12-18T08:25:08;-5.20;99.90
55064;DHT22;40963;52.168;21.296;2022-12-18T08:27:34;-5.20;99.90
55064;DHT22;40963;52.168;21.296;2022-12-18T08:29:59;-5.20;99.90
55064;DHT22;40963;52.168;21.296;2022-12-18T08:32:26;-5.20;99.90
55064;DHT22;40963;52.168;21.296;2022-12-18T08:34:52;-5.20;99.90
55064;DHT22;40963;52.168;21.296;2022-12-18T08:37:18;-5.10;99.90
55064;DHT22;40963;52.168;21.296;2022-12-18T08:39:43;-5.10;99.90
55064;DHT22;40963;52.168;21.296;2022-12-18T08:42:09;-5.10;99.90
55064;DHT22;40963;52.168;21.296;2022-12-18T08:44:53;-5.00;99.90
55064;DHT22;40963;52.168;21.296;2022-12-18T08:47:19;-5.00;99.90
55064;DHT22;40963;52.168;21.296;2022-12-18T08:49:44;-5.00;99.90
55064;DHT22;40963;52.168;21.296;2022-12-18T08:52:10;-5.00;99.90
55064;DHT22;40963;52.168;21.296;2022-12-18T08:54:36;-4.90;99.90
55064;DHT22;40963;52.168;21.296;2022-12-18T08:57:02;-4.90;99.90
55064;DHT22;40963;52.168;21.296;2022-12-18T08:59:27;-4.80;99.90
55064;DHT22;40963;52.168;21.296;2022-12-18T09:01:53;-4.80;99.90
55064;DHT22;40963;52.168;21.296;2022-12-18T09:04:19;-4.80;99.90
55064;DHT22;40963;52.168;21.296;2022-12-18T09:06:45;-4.80;99.90
55064;DHT22;40963;52.168;21.296;2022-12-18T09:09:10;-4.80;99.90
55064;DHT22;40963;52.168;21.296;2022-12-18T09:11:37;-4.80;99.90
55064;DHT22;40963;52.168;21.296;2022-12-18T09:14:02;-4.80;99.90
55064;DHT22;40963;52.168;21.296;2022-12-18T09:16:29;-4.80;99.90
55064;DHT22;40963;52.168;21.296;2022-12-18T09:18:55;-4.70;99.90
55064;DHT22;40963;52.168;21.296;2022-12-18T09:21:26;-4.70;99.90
55064;DHT22;40963;52.168;21.296;2022-12-18T09:23:53;-4.70;99.90
55064;DHT22;40963;52.168;21.296;2022-12-18T09:26:20;-4.60;99.90
55064;DHT22;40963;52.168;21.296;2022-12-18T09:28:46;-4.60;99.90
55064;DHT22;40963;52.168;21.296;2022-12-18T09:31:13;-4.50;99.90
55064;DHT22;40963;52.168;21.296;2022-12-18T09:33:39;-4.40;99.90
55064;DHT22;40963;52.168;21.296;2022-12-18T09:36:06;-4.40;99.90
55064;DHT22;40963;52.168;21.296;2022-12-18T09:38:34;-4.30;99.90
55064;DHT22;40963;52.168;21.296;2022-12-18T09:41:06;-4.30;99.90
55064;DHT22;40963;52.168;21.296;2022-12-18T09:43:57;-4.20;99.90
55064;DHT22;40963;52.168;21.296;2022-12-18T09:46:28;-4.10;99.90
55064;DHT22;40963;52.168;21.296;2022-12-18T09:48:58;-4.00;99.90
55064;DHT22;40963;52.168;21.296;2022-12-18T09:51:32;-3.90;99.90
55064;DHT22;40963;52.168;21.296;2022-12-18T09:54:04;-3.90;99.90
55064;DHT22;40963;52.168;21.296;2022-12-18T09:56:35;-3.90;99.90
55064;DHT22;40963;52.168;21.296;2022-12-18T09:59:04;-3.90;99.90
55064;DHT22;40963;52.168;21.296;2022-12-18T10:01:31;-3.90;99.90
55064;DHT22;40963;52.168;21.296;2022-12-18T10:03:57;-3.90;99.90
55064;DHT22;40963;52.168;21.296;2022-12-18T10:06:32;-3.80;99.90
55064;DHT22;40963;52.168;21.296;2022-12-18T10:09:12;-3.80;99.90
55064;DHT22;40963;52.168;21.296;2022-12-18T10:12:00;-3.80;99.90
55064;DHT22;40963;52.168;21.296;2022-12-18T10:19:59;-3.60;99.90
55064;DHT22;40963;52.168;21.296;2022-12-18T10:25:22;-3.50;99.90
55064;DHT22;40963;52.168;21.296;2022-12-18T10:27:53;-3.50;99.90
55064;DHT22;40963;52.168;21.296;2022-12-18T10:30:22;-3.40;99.90
55064;DHT22;40963;52.168;21.296;2022-12-18T10:32:48;-3.40;99.90
55064;DHT22;40963;52.168;21.296;2022-12-18T10:35:22;-3.30;99.90
55064;DHT22;40963;52.168;21.296;2022-12-18T10:38:19;-3.30;99.90
55064;DHT22;40963;52.168;21.296;2022-12-18T10:40:54;-3.20;99.90
55064;DHT22;40963;52.168;21.296;2022-12-18T10:43:27;-3.20;99.90
55064;DHT22;40963;52.168;21.296;2022-12-18T10:46:00;-3.20;99.90
55064;DHT22;40963;52.168;21.296;2022-12-18T10:48:27;-3.20;99.90
55064;DHT22;40963;52.168;21.296;2022-12-18T10:50:53;-3.20;99.90
55064;DHT22;40963;52.168;21.296;2022-12-18T10:53:27;-3.20;99.90
55064;DHT22;40963;52.168;21.296;2022-12-18T10:55:55;-3.20;99.90
55064;DHT22;40963;52.168;21.296;2022-12-18T10:58:30;-3.20;99.90
55064;DHT22;40963;52.168;21.296;2022-12-18T11:01:18;-3.20;99.90
55064;DHT22;40963;52.168;21.296;2022-12-18T11:04:00;-3.20;99.90
55064;DHT22;40963;52.168;21.296;2022-12-18T11:06:27;-3.20;99.90
55064;DHT22;40963;52.168;21.296;2022-12-18T11:11:28;-3.10;99.90
55064;DHT22;40963;52.168;21.296;2022-12-18T11:16:22;-3.00;99.90
55064;DHT22;40963;52.168;21.296;2022-12-18T11:18:49;-2.90;99.90
55064;DHT22;40963;52.168;21.296;2022-12-18T11:21:14;-2.90;99.90
55064;DHT22;40963;52.168;21.296;2022-12-18T11:23:52;-2.90;99.90
55064;DHT22;40963;52.168;21.296;2022-12-18T11:26:18;-2.90;99.90
55064;DHT22;40963;52.168;21.296;2022-12-18T11:29:12;-3.00;99.90
55064;DHT22;40963;52.168;21.296;2022-12-18T11:31:41;-3.00;99.90
55064;DHT22;40963;52.168;21.296;2022-12-18T11:34:35;-2.90;99.90
55064;DHT22;40963;52.168;21.296;2022-12-18T11:37:04;-2.90;99.90
55064;DHT22;40963;52.168;21.296;2022-12-18T11:42:43;-2.80;99.90
55064;DHT22;40963;52.168;21.296;2022-12-18T11:45:23;-2.80;99.90
55064;DHT22;40963;52.168;21.296;2022-12-18T11:48:41;-2.80;99.90
55064;DHT22;40963;52.168;21.296;2022-12-18T11:51:20;-2.70;99.90
55064;DHT22;40963;52.168;21.296;2022-12-18T11:54:16;-2.70;99.90
55064;DHT22;40963;52.168;21.296;2022-12-18T11:56:48;-2.60;99.90
55064;DHT22;40963;52.168;21.296;2022-12-18T11:59:24;-2.60;99.90
55064;DHT22;40963;52.168;21.296;2022-12-18T12:01:57;-2.70;99.90
55064;DHT22;40963;52.168;21.296;2022-12-18T12:04:33;-2.70;99.90
55064;DHT22;40963;52.168;21.296;2022-12-18T12:07:26;-2.80;99.90
55064;DHT22;40963;52.168;21.296;2022-12-18T12:10:08;-2.80;99.90
55064;DHT22;40963;52.168;21.296;2022-12-18T12:12:59;-2.80;99.90
55064;DHT22;40963;52.168;21.296;2022-12-18T12:21:40;-2.80;99.90
55064;DHT22;40963;52.168;21.296;2022-12-18T12:24:25;-2.70;99.90
55064;DHT22;40963;52.168;21.296;2022-12-18T12:30:07;-2.60;99.90
55064;DHT22;40963;52.168;21.296;2022-12-18T12:38:14;-2.90;99.90
55064;DHT22;40963;52.168;21.296;2022-12-18T12:41:21;-2.90;99.90
55064;DHT22;40963;52.168;21.296;2022-12-18T12:44:01;-2.80;99.90
55064;DHT22;40963;52.168;21.296;2022-12-18T12:46:31;-2.80;99.90
55064;DHT22;40963;52.168;21.296;2022-12-18T12:49:00;-2.80;99.90
55064;DHT22;40963;52.168;21.296;2022-12-18T12:51:39;-2.80;99.90
55064;DHT22;40963;52.168;21.296;2022-12-18T12:54:16;-2.80;99.90
55064;DHT22;40963;52.168;21.296;2022-12-18T12:59:46;-2.70;99.90
55064;DHT22;40963;52.168;21.296;2022-12-18T13:02:24;-2.70;99.90
55064;DHT22;40963;52.168;21.296;2022-12-18T13:08:28;-2.70;99.90
55064;DHT22;40963;52.168;21.296;2022-12-18T13:10:55;-2.80;99.90
55064;DHT22;40963;52.168;21.296;2022-12-18T13:13:53;-2.80;99.90
55064;DHT22;40963;52.168;21.296;2022-12-18T13:16:23;-3.00;99.90
55064;DHT22;40963;52.168;21.296;2022-12-18T13:18:52;-3.10;99.90
55064;DHT22;40963;52.168;21.296;2022-12-18T13:23:50;-3.10;99.90
55064;DHT22;40963;52.168;21.296;2022-12-18T13:31:15;-3.10;99.90
55064;DHT22;40963;52.168;21.296;2022-12-18T13:36:43;-3.10;99.90
55064;DHT22;40963;52.168;21.296;2022-12-18T13:39:10;-3.10;99.90
55064;DHT22;40963;52.168;21.296;2022-12-18T13:41:36;-3.10;99.90
55064;DHT22;40963;52.168;21.296;2022-12-18T13:44:22;-3.00;99.90
55064;DHT22;40963;52.168;21.296;2022-12-18T13:46:50;-3.00;99.90
55064;DHT22;40963;52.168;21.296;2022-12-18T13:51:56;-3.10;99.90
55064;DHT22;40963;52.168;21.296;2022-12-18T13:54:34;-3.20;99.90
55064;DHT22;40963;52.168;21.296;2022-12-18T13:57:01;-3.10;99.90
55064;DHT22;40963;52.168;21.296;2022-12-18T13:59:39;-3.10;99.90
55064;DHT22;40963;52.168;21.296;2022-12-18T14:02:22;-3.10;99.90
55064;DHT22;40963;52.168;21.296;2022-12-18T14:04:49;-3.10;99.90
55064;DHT22;40963;52.168;21.296;2022-12-18T14:09:50;-3.10;99.90
55064;DHT22;40963;52.168;21.296;2022-12-18T14:12:27;-3.20;99.90
55064;DHT22;40963;52.168;21.296;2022-12-18T14:15:28;-3.30;99.90
55064;DHT22;40963;52.168;21.296;2022-12-18T14:17:59;-3.40;99.90
55064;DHT22;40963;52.168;21.296;2022-12-18T14:20:25;-3.50;99.90
55064;DHT22;40963;52.168;21.296;2022-12-18T14:22:51;-3.50;99.90
55064;DHT22;40963;52.168;21.296;2022-12-18T14:25:22;-3.60;99.90
55064;DHT22;40963;52.168;21.296;2022-12-18T14:28:13;-3.70;99.90
55064;DHT22;40963;52.168;21.296;2022-12-18T14:30:39;-3.70;99.90
55064;DHT22;40963;52.168;21.296;2022-12-18T14:33:29;-3.70;99.90
55064;DHT22;40963;52.168;21.296;2022-12-18T14:36:02;-3.70;99.90
55064;DHT22;40963;52.168;21.296;2022-12-18T14:38:39;-3.70;99.90
55064;DHT22;40963;52.168;21.296;2022-12-18T14:41:10;-3.70;99.90
55064;DHT22;40963;52.168;21.296;2022-12-18T14:43:38;-3.70;99.90
55064;DHT22;40963;52.168;21.296;2022-12-18T14:46:06;-3.70;99.90
55064;DHT22;40963;52.168;21.296;2022-12-18T14:48:50;-3.70;99.90
55064;DHT22;40963;52.168;21.296;2022-12-18T14:51:20;-3.70;99.90
55064;DHT22;40963;52.168;21.296;2022-12-18T14:53:56;-3.60;99.90
55064;DHT22;40963;52.168;21.296;2022-12-18T14:56:25;-3.60;99.90
55064;DHT22;40963;52.168;21.296;2022-12-18T14:59:00;-3.60;99.90
55064;DHT22;40963;52.168;21.296;2022-12-18T15:01:37;-3.60;99.90
55064;DHT22;40963;52.168;21.296;2022-12-18T15:04:05;-3.50;99.90
55064;DHT22;40963;52.168;21.296;2022-12-18T15:06:48;-3.50;99.90
55064;DHT22;40963;52.168;21.296;2022-12-18T15:09:25;-3.50;99.90
55064;DHT22;40963;52.168;21.296;2022-12-18T15:11:56;-3.50;99.90
55064;DHT22;40963;52.168;21.296;2022-12-18T15:17:17;-3.50;99.90
55064;DHT22;40963;52.168;21.296;2022-12-18T15:19:45;-3.40;99.90
55064;DHT22;40963;52.168;21.296;2022-12-18T15:22:30;-3.50;99.90
55064;DHT22;40963;52.168;21.296;2022-12-18T15:24:56;-3.50;99.90
55064;DHT22;40963;52.168;21.296;2022-12-18T15:27:29;-3.40;99.90
55064;DHT22;40963;52.168;21.296;2022-12-18T15:32:30;-3.40;99.90
55064;DHT22;40963;52.168;21.296;2022-12-18T15:35:23;-3.40;99.90
55064;DHT22;40963;52.168;21.296;2022-12-18T15:37:51;-3.40;99.90
55064;DHT22;40963;52.168;21.296;2022-12-18T15:40:22;-3.40;99.90
55064;DHT22;40963;52.168;21.296;2022-12-18T15:42:50;-3.40;99.90
55064;DHT22;40963;52.168;21.296;2022-12-18T15:45:35;-3.40;99.90
55064;DHT22;40963;52.168;21.296;2022-12-18T15:48:20;-3.40;99.90
55064;DHT22;40963;52.168;21.296;2022-12-18T15:50:46;-3.40;99.90
55064;DHT22;40963;52.168;21.296;2022-12-18T15:53:11;-3.40;99.90
55064;DHT22;40963;52.168;21.296;2022-12-18T15:55:37;-3.40;99.90
55064;DHT22;40963;52.168;21.296;2022-12-18T15:58:22;-3.40;99.90
55064;DHT22;40963;52.168;21.296;2022-12-18T16:00:47;-3.40;99.90
55064;DHT22;40963;52.168;21.296;2022-12-18T16:03:13;-3.40;99.90
55064;DHT22;40963;52.168;21.296;2022-12-18T16:05:38;-3.40;99.90
55064;DHT22;40963;52.168;21.296;2022-12-18T16:08:04;-3.40;99.90
55064;DHT22;40963;52.168;21.296;2022-12-18T16:10:30;-3.40;99.90
55064;DHT22;40963;52.168;21.296;2022-12-18T16:12:55;-3.40;99.90
55064;DHT22;40963;52.168;21.296;2022-12-18T16:15:21;-3.40;99.90
55064;DHT22;40963;52.168;21.296;2022-12-18T16:17:47;-3.40;99.90
55064;DHT22;40963;52.168;21.296;2022-12-18T16:20:21;-3.40;99.90
55064;DHT22;40963;52.168;21.296;2022-12-18T16:22:48;-3.40;99.90
55064;DHT22;40963;52.168;21.296;2022-12-18T16:25:28;-3.40;99.90
55064;DHT22;40963;52.168;21.296;2022-12-18T16:27:54;-3.50;99.90
55064;DHT22;40963;52.168;21.296;2022-12-18T16:30:28;-3.50;99.90
55064;DHT22;40963;52.168;21.296;2022-12-18T16:32:59;-3.50;99.90
55064;DHT22;40963;52.168;21.296;2022-12-18T16:35:25;-3.50;99.90
55064;DHT22;40963;52.168;21.296;2022-12-18T16:37:51;-3.60;99.90
55064;DHT22;40963;52.168;21.296;2022-12-18T16:40:17;-3.60;99.90
55064;DHT22;40963;52.168;21.296;2022-12-18T16:42:44;-3.70;99.90